Averill Park, New York
Current Conditions -  °F | °C
As of 3:51 PM on Saturday 20 Dec 2014 (Local Time) from KALB Reporting Station
Broken Clouds Broken Clouds  
Wind Chill: 30°   Ceiling: 3000
Heat Index: 30°   Visibility: 10mi
Dew Point: 17°   Wind: 3mph
Humidity: 59%   Direction: 340°NNW
Pressure: 30.29"   Gusts: NA
Location:  42.64°N, 73.55°W
Report Text: KALB 202051Z 34003KT 10SM BKN030 BKN070 M01/M08 A3029 RMK AO2 SLP261 T10111083 56003
Loading
Personal Weather Stations






























Interactive Weather Map New forecast layout! Learn more

10-Day Weather Forecast

Advertisements
Track Severe Weather on mobile